createdAt,value
2022-10-06T00:01:14.732Z,100.00
2022-10-06T00:03:43.435Z,100.00
2022-10-06T00:06:13.214Z,100.00
2022-10-06T00:08:41.983Z,100.00
2022-10-06T00:11:10.346Z,100.00
2022-10-06T00:13:37.479Z,100.00
2022-10-06T00:16:17.626Z,100.00
2022-10-06T00:18:45.366Z,100.00
2022-10-06T00:21:12.345Z,100.00
2022-10-06T00:23:39.127Z,100.00
2022-10-06T00:26:10.779Z,100.00
2022-10-06T00:28:37.760Z,100.00
2022-10-06T00:31:04.754Z,100.00
2022-10-06T00:33:31.621Z,100.00
2022-10-06T00:36:00.641Z,100.00
2022-10-06T00:38:28.251Z,100.00
2022-10-06T00:40:55.660Z,100.00
2022-10-06T00:43:43.300Z,100.00
2022-10-06T00:46:16.938Z,100.00
2022-10-06T00:48:46.885Z,100.00
2022-10-06T00:51:14.295Z,100.00
2022-10-06T00:53:42.076Z,100.00
2022-10-06T00:56:09.109Z,100.00
2022-10-06T00:58:35.958Z,100.00
2022-10-06T01:01:03.750Z,100.00
2022-10-06T01:03:35.476Z,100.00
2022-10-06T01:06:04.050Z,100.00
2022-10-06T01:08:32.034Z,100.00
2022-10-06T01:10:59.039Z,100.00
2022-10-06T01:13:27.491Z,100.00
2022-10-06T01:16:03.240Z,100.00
2022-10-06T01:18:32.159Z,100.00
2022-10-06T01:21:23.974Z,100.00
2022-10-06T01:23:50.963Z,100.00
2022-10-06T01:26:21.732Z,100.00
2022-10-06T01:28:49.177Z,100.00
2022-10-06T01:31:16.396Z,100.00
2022-10-06T01:33:43.581Z,100.00
2022-10-06T01:36:10.345Z,100.00
2022-10-06T01:38:37.132Z,100.00
2022-10-06T01:41:04.221Z,100.00
2022-10-06T01:43:30.967Z,100.00
2022-10-06T01:45:59.111Z,100.00
2022-10-06T01:48:27.308Z,100.00
2022-10-06T01:50:55.275Z,100.00
2022-10-06T01:53:22.646Z,100.00
2022-10-06T01:55:49.416Z,100.00
2022-10-06T01:58:16.206Z,100.00
2022-10-06T02:00:43.006Z,100.00
2022-10-06T02:03:09.949Z,100.00
2022-10-06T02:05:36.735Z,100.00
2022-10-06T02:08:03.856Z,100.00
2022-10-06T02:10:30.763Z,100.00
2022-10-06T02:12:57.677Z,100.00
2022-10-06T02:15:26.800Z,100.00
2022-10-06T02:17:54.840Z,100.00
2022-10-06T02:20:22.012Z,100.00
2022-10-06T02:22:49.013Z,100.00
2022-10-06T02:25:17.155Z,100.00
2022-10-06T02:27:44.291Z,100.00
2022-10-06T02:30:14.088Z,100.00
2022-10-06T02:32:42.780Z,100.00
2022-10-06T02:35:12.755Z,100.00
2022-10-06T02:37:41.488Z,100.00
2022-10-06T02:40:09.384Z,100.00
2022-10-06T02:42:37.711Z,100.00
2022-10-06T02:45:06.906Z,100.00
2022-10-06T02:47:35.689Z,100.00
2022-10-06T02:50:05.928Z,100.00
2022-10-06T02:52:38.066Z,100.00
2022-10-06T02:55:07.456Z,100.00
2022-10-06T02:57:34.296Z,100.00
2022-10-06T03:00:01.068Z,100.00
2022-10-06T03:02:30.971Z,100.00
2022-10-06T03:04:57.858Z,100.00
2022-10-06T03:07:24.703Z,100.00
2022-10-06T03:09:51.453Z,100.00
2022-10-06T03:12:18.247Z,100.00
2022-10-06T03:14:45.034Z,100.00
2022-10-06T03:17:11.918Z,100.00
2022-10-06T03:19:38.939Z,100.00
2022-10-06T03:22:06.298Z,100.00
2022-10-06T03:24:33.117Z,100.00
2022-10-06T03:26:59.889Z,100.00
2022-10-06T03:29:27.890Z,100.00
2022-10-06T03:31:54.712Z,100.00
2022-10-06T03:34:21.550Z,100.00
2022-10-06T03:36:48.383Z,100.00
2022-10-06T03:39:15.222Z,100.00
2022-10-06T03:41:42.008Z,100.00
2022-10-06T03:44:08.819Z,100.00
2022-10-06T03:46:37.052Z,100.00
2022-10-06T03:49:04.246Z,100.00
2022-10-06T03:51:37.584Z,100.00
2022-10-06T03:54:04.996Z,100.00
2022-10-06T03:56:35.260Z,100.00
2022-10-06T03:59:05.486Z,100.00
2022-10-06T04:01:45.419Z,100.00
2022-10-06T04:04:13.299Z,100.00
2022-10-06T04:06:43.294Z,100.00
2022-10-06T04:09:15.589Z,100.00
2022-10-06T04:11:44.422Z,100.00
2022-10-06T04:14:15.097Z,100.00
2022-10-06T04:16:50.137Z,100.00
2022-10-06T04:19:18.137Z,100.00
2022-10-06T04:21:46.826Z,100.00
2022-10-06T04:24:13.869Z,100.00
2022-10-06T04:26:46.691Z,100.00
2022-10-06T04:29:14.474Z,100.00
2022-10-06T04:31:42.575Z,100.00
2022-10-06T04:34:13.023Z,100.00
2022-10-06T04:36:42.511Z,100.00
2022-10-06T04:39:11.790Z,100.00
2022-10-06T04:41:41.706Z,100.00
2022-10-06T04:44:08.974Z,100.00
2022-10-06T04:46:44.775Z,100.00
2022-10-06T04:49:19.135Z,100.00
2022-10-06T04:51:48.697Z,100.00
2022-10-06T04:54:15.710Z,100.00
2022-10-06T04:56:42.591Z,100.00
2022-10-06T04:59:09.405Z,100.00
2022-10-06T05:01:37.696Z,100.00
2022-10-06T05:04:06.101Z,100.00
2022-10-06T05:06:39.798Z,100.00
2022-10-06T05:09:15.580Z,100.00
2022-10-06T05:11:42.385Z,100.00
2022-10-06T05:14:09.433Z,100.00
2022-10-06T05:16:38.154Z,100.00
2022-10-06T05:19:05.690Z,100.00
2022-10-06T05:21:33.476Z,100.00
2022-10-06T05:24:01.000Z,100.00
2022-10-06T05:26:31.333Z,100.00
2022-10-06T05:28:58.725Z,100.00
2022-10-06T05:31:32.688Z,100.00
2022-10-06T05:34:00.087Z,100.00
2022-10-06T05:36:33.780Z,100.00
2022-10-06T05:39:01.828Z,100.00
2022-10-06T05:41:32.435Z,100.00
2022-10-06T05:43:59.858Z,100.00
2022-10-06T05:46:30.310Z,100.00
2022-10-06T05:48:59.744Z,100.00
2022-10-06T05:51:31.144Z,100.00
2022-10-06T05:54:01.941Z,100.00
2022-10-06T05:56:31.806Z,100.00
2022-10-06T05:59:00.113Z,100.00
2022-10-06T06:01:42.285Z,100.00
2022-10-06T06:04:12.346Z,100.00
2022-10-06T06:06:43.951Z,100.00
2022-10-06T06:09:17.450Z,100.00
2022-10-06T06:11:47.993Z,100.00
2022-10-06T06:14:17.765Z,100.00
2022-10-06T06:16:46.411Z,100.00
2022-10-06T06:19:14.996Z,100.00
2022-10-06T06:21:41.917Z,100.00
2022-10-06T06:24:08.964Z,100.00
2022-10-06T06:26:37.568Z,100.00
2022-10-06T06:29:06.261Z,100.00
2022-10-06T06:31:36.469Z,100.00
2022-10-06T06:34:05.019Z,100.00
2022-10-06T06:36:37.213Z,100.00
2022-10-06T06:39:08.299Z,100.00
2022-10-06T06:41:45.123Z,100.00
2022-10-06T06:44:13.784Z,100.00
2022-10-06T06:46:43.401Z,100.00
2022-10-06T06:49:11.864Z,100.00
2022-10-06T06:51:42.248Z,100.00
2022-10-06T06:54:11.573Z,100.00
2022-10-06T06:56:39.078Z,100.00
2022-10-06T06:59:11.862Z,100.00
2022-10-06T07:01:44.294Z,100.00
2022-10-06T07:04:13.869Z,100.00
2022-10-06T07:06:41.896Z,100.00
2022-10-06T07:09:10.149Z,100.00
2022-10-06T07:11:39.907Z,100.00
2022-10-06T07:14:09.682Z,100.00
2022-10-06T07:16:55.178Z,100.00
2022-10-06T07:19:42.086Z,100.00
2022-10-06T07:22:27.490Z,100.00
2022-10-06T07:25:12.751Z,100.00
2022-10-06T07:27:46.687Z,100.00
2022-10-06T07:30:26.358Z,100.00
2022-10-06T07:32:53.608Z,100.00
2022-10-06T07:35:22.577Z,100.00
2022-10-06T07:37:51.333Z,100.00
2022-10-06T07:40:18.463Z,100.00
2022-10-06T07:42:48.617Z,100.00
2022-10-06T07:45:40.939Z,100.00
2022-10-06T07:48:20.612Z,100.00
2022-10-06T07:50:51.676Z,100.00
2022-10-06T07:53:19.296Z,100.00
2022-10-06T07:55:47.914Z,100.00
2022-10-06T07:58:20.925Z,100.00
2022-10-06T08:00:48.867Z,100.00
2022-10-06T08:03:18.212Z,100.00
2022-10-06T08:05:50.642Z,100.00
2022-10-06T08:08:17.661Z,100.00
2022-10-06T08:10:56.213Z,100.00
2022-10-06T08:13:23.898Z,100.00
2022-10-06T08:15:51.746Z,100.00
2022-10-06T08:18:41.108Z,100.00
2022-10-06T08:21:19.263Z,100.00
2022-10-06T08:23:48.738Z,100.00
2022-10-06T08:26:18.918Z,100.00
2022-10-06T08:28:49.013Z,100.00
2022-10-06T08:31:18.326Z,100.00
2022-10-06T08:33:46.098Z,100.00
2022-10-06T08:36:19.186Z,100.00
2022-10-06T08:38:50.497Z,100.00
2022-10-06T08:41:55.818Z,100.00
2022-10-06T08:44:56.725Z,100.00
2022-10-06T08:47:28.353Z,100.00
2022-10-06T08:49:56.046Z,100.00
2022-10-06T08:52:47.050Z,100.00
2022-10-06T08:55:41.459Z,100.00
2022-10-06T08:58:35.015Z,100.00
2022-10-06T09:01:09.599Z,100.00
2022-10-06T09:03:38.505Z,100.00
2022-10-06T09:06:31.620Z,100.00
2022-10-06T09:09:25.334Z,100.00
2022-10-06T09:12:20.589Z,100.00
2022-10-06T09:15:14.664Z,100.00
2022-10-06T09:17:50.143Z,100.00
2022-10-06T09:20:34.524Z,100.00
2022-10-06T09:23:05.244Z,100.00
2022-10-06T09:25:33.101Z,100.00
2022-10-06T09:28:03.128Z,100.00
2022-10-06T09:30:30.043Z,100.00
2022-10-06T09:33:02.873Z,100.00
2022-10-06T09:35:32.263Z,100.00
2022-10-06T09:38:08.643Z,100.00
2022-10-06T09:40:53.896Z,100.00
2022-10-06T09:43:28.461Z,100.00
2022-10-06T09:45:57.281Z,100.00
2022-10-06T09:48:26.597Z,100.00
2022-10-06T09:51:14.456Z,100.00
2022-10-06T09:53:43.868Z,100.00
2022-10-06T09:56:20.116Z,100.00
2022-10-06T09:59:01.680Z,100.00
2022-10-06T10:01:30.728Z,100.00
2022-10-06T10:04:19.861Z,100.00
2022-10-06T10:06:48.245Z,100.00
2022-10-06T10:09:22.212Z,100.00
2022-10-06T10:12:30.071Z,100.00
2022-10-06T10:15:20.220Z,100.00
2022-10-06T10:17:57.261Z,100.00
2022-10-06T10:20:36.284Z,100.00
2022-10-06T10:23:31.627Z,100.00
2022-10-06T10:26:26.998Z,100.00
2022-10-06T10:29:27.292Z,100.00
2022-10-06T10:32:12.111Z,100.00
2022-10-06T10:35:13.426Z,100.00
2022-10-06T10:37:48.656Z,100.00
2022-10-06T10:40:38.847Z,100.00
2022-10-06T10:43:31.757Z,100.00
2022-10-06T10:46:10.095Z,100.00
2022-10-06T10:48:47.428Z,100.00
2022-10-06T10:51:49.870Z,100.00
2022-10-06T10:54:38.120Z,100.00
2022-10-06T10:57:13.889Z,100.00
2022-10-06T11:00:01.804Z,100.00
2022-10-06T11:02:28.880Z,100.00
2022-10-06T11:05:16.192Z,100.00
2022-10-06T11:08:02.000Z,100.00
2022-10-06T11:11:02.806Z,100.00
2022-10-06T11:13:39.304Z,100.00
2022-10-06T11:16:27.202Z,100.00
2022-10-06T11:19:03.432Z,100.00
2022-10-06T11:21:41.856Z,100.00
2022-10-06T11:24:56.168Z,100.00
2022-10-06T11:27:49.350Z,100.00
2022-10-06T11:30:19.571Z,100.00
2022-10-06T11:33:04.767Z,100.00
2022-10-06T11:35:37.771Z,100.00
2022-10-06T11:38:10.678Z,100.00
2022-10-06T11:41:10.307Z,100.00
2022-10-06T11:44:04.283Z,100.00
2022-10-06T11:46:50.681Z,100.00
2022-10-06T11:49:29.621Z,100.00
2022-10-06T11:52:11.430Z,100.00
2022-10-06T11:54:43.664Z,100.00
2022-10-06T11:58:17.883Z,100.00
2022-10-06T12:00:52.732Z,100.00
2022-10-06T12:03:28.632Z,100.00
2022-10-06T12:05:57.013Z,100.00
2022-10-06T12:08:41.469Z,100.00
2022-10-06T12:11:41.367Z,100.00
2022-10-06T12:17:47.296Z,100.00
2022-10-06T12:20:26.913Z,100.00
2022-10-06T12:23:50.698Z,100.00
2022-10-06T12:26:35.987Z,100.00
2022-10-06T12:29:53.637Z,100.00
2022-10-06T12:32:43.255Z,100.00
2022-10-06T12:35:29.725Z,100.00
2022-10-06T12:38:05.809Z,100.00
2022-10-06T12:40:40.237Z,100.00
2022-10-06T12:43:18.704Z,100.00
2022-10-06T12:46:12.159Z,100.00
2022-10-06T12:49:09.146Z,100.00
2022-10-06T12:51:41.351Z,100.00
2022-10-06T12:54:13.915Z,100.00
2022-10-06T12:56:43.000Z,100.00
2022-10-06T12:59:29.949Z,100.00
2022-10-06T13:02:00.761Z,100.00
2022-10-06T13:04:45.030Z,100.00
2022-10-06T13:07:23.299Z,100.00
2022-10-06T13:09:54.283Z,100.00
2022-10-06T13:12:36.852Z,100.00
2022-10-06T13:15:13.543Z,100.00
2022-10-06T13:17:50.629Z,100.00
2022-10-06T13:20:59.818Z,100.00
2022-10-06T13:23:38.075Z,100.00
2022-10-06T13:26:21.799Z,100.00
2022-10-06T13:28:56.070Z,100.00
2022-10-06T13:31:35.095Z,100.00
2022-10-06T13:34:12.946Z,100.00
2022-10-06T13:36:43.024Z,100.00
2022-10-06T13:39:27.023Z,100.00
2022-10-06T13:42:05.585Z,100.00
2022-10-06T13:44:55.614Z,100.00
2022-10-06T13:47:25.576Z,100.00
2022-10-06T13:50:22.376Z,100.00
2022-10-06T13:52:50.562Z,100.00
2022-10-06T13:55:27.070Z,100.00
2022-10-06T13:58:03.294Z,100.00
2022-10-06T14:00:48.874Z,100.00
2022-10-06T14:03:33.807Z,100.00
2022-10-06T14:06:18.381Z,100.00
2022-10-06T14:08:52.897Z,100.00
2022-10-06T14:11:28.027Z,100.00
2022-10-06T14:13:57.853Z,100.00
2022-10-06T14:16:26.674Z,100.00
2022-10-06T14:18:58.232Z,100.00
2022-10-06T14:21:41.425Z,100.00
2022-10-06T14:24:17.236Z,100.00
2022-10-06T14:26:52.135Z,100.00
2022-10-06T14:29:19.309Z,100.00
2022-10-06T14:31:47.092Z,100.00
2022-10-06T14:34:17.369Z,100.00
2022-10-06T14:36:47.451Z,100.00
2022-10-06T14:39:15.793Z,100.00
2022-10-06T14:41:42.927Z,100.00
2022-10-06T14:44:12.132Z,100.00
2022-10-06T14:46:42.114Z,100.00
2022-10-06T14:49:16.144Z,100.00
2022-10-06T14:51:44.358Z,100.00
2022-10-06T14:54:12.150Z,100.00
2022-10-06T14:56:40.660Z,100.00
2022-10-06T14:59:12.067Z,100.00
2022-10-06T15:01:42.612Z,100.00
2022-10-06T15:04:13.287Z,100.00
2022-10-06T15:06:59.598Z,100.00
2022-10-06T15:09:27.518Z,100.00
2022-10-06T15:11:56.829Z,100.00
2022-10-06T15:14:23.617Z,100.00
2022-10-06T15:16:51.280Z,100.00
2022-10-06T15:19:18.487Z,100.00
2022-10-06T15:21:45.590Z,100.00
2022-10-06T15:24:18.516Z,100.00
2022-10-06T15:27:05.306Z,99.62
2022-10-06T15:29:34.753Z,99.60
2022-10-06T15:32:03.576Z,98.50
2022-10-06T15:34:34.266Z,98.55
2022-10-06T15:37:02.076Z,98.82
2022-10-06T15:39:32.048Z,98.98
2022-10-06T15:41:59.461Z,99.66
2022-10-06T15:44:26.756Z,100.00
2022-10-06T15:46:56.018Z,99.88
2022-10-06T15:49:25.968Z,99.98
2022-10-06T15:51:54.891Z,100.00
2022-10-06T15:54:27.718Z,100.00
2022-10-06T15:56:58.275Z,100.00
2022-10-06T15:59:27.388Z,100.00
2022-10-06T16:02:01.596Z,100.00
2022-10-06T16:04:46.540Z,100.00
2022-10-06T16:07:17.801Z,100.00
2022-10-06T16:09:48.302Z,100.00
2022-10-06T16:12:19.141Z,100.00
2022-10-06T16:14:46.123Z,100.00
2022-10-06T16:17:13.620Z,100.00
2022-10-06T16:19:40.674Z,100.00
2022-10-06T16:22:13.445Z,100.00
2022-10-06T16:24:40.321Z,100.00
2022-10-06T16:27:09.463Z,100.00
2022-10-06T16:29:36.301Z,100.00
2022-10-06T16:32:03.665Z,100.00
2022-10-06T16:34:31.347Z,100.00
2022-10-06T16:36:58.711Z,100.00
2022-10-06T16:39:25.553Z,100.00
2022-10-06T16:41:53.915Z,100.00
2022-10-06T16:44:20.675Z,100.00
2022-10-06T16:46:47.529Z,100.00
2022-10-06T16:49:14.583Z,100.00
2022-10-06T16:51:48.487Z,100.00
2022-10-06T16:54:20.831Z,100.00
2022-10-06T16:56:52.098Z,100.00
2022-10-06T16:59:21.920Z,100.00
2022-10-06T17:01:50.317Z,100.00
2022-10-06T17:04:20.558Z,100.00
2022-10-06T17:06:57.010Z,100.00
2022-10-06T17:09:28.884Z,100.00
2022-10-06T17:11:58.846Z,100.00
2022-10-06T17:14:27.521Z,100.00
2022-10-06T17:16:58.013Z,100.00
2022-10-06T17:19:29.191Z,100.00
2022-10-06T17:21:59.399Z,100.00
2022-10-06T17:24:28.960Z,100.00
2022-10-06T17:26:57.435Z,100.00
2022-10-06T17:29:25.809Z,100.00
2022-10-06T17:31:56.101Z,100.00
2022-10-06T17:34:26.486Z,100.00
2022-10-06T17:36:57.404Z,100.00
2022-10-06T17:39:24.502Z,100.00
2022-10-06T17:41:53.459Z,100.00
2022-10-06T17:44:24.051Z,100.00
2022-10-06T17:46:58.040Z,100.00
2022-10-06T17:49:26.774Z,100.00
2022-10-06T17:51:55.054Z,100.00
2022-10-06T17:54:24.925Z,100.00
2022-10-06T17:56:55.656Z,100.00
2022-10-06T17:59:29.987Z,100.00
2022-10-06T18:01:59.704Z,100.00
2022-10-06T18:04:27.050Z,100.00
2022-10-06T18:06:54.974Z,100.00
2022-10-06T18:09:22.685Z,100.00
2022-10-06T18:11:54.867Z,100.00
2022-10-06T18:14:25.736Z,100.00
2022-10-06T18:17:00.298Z,100.00
2022-10-06T18:19:30.759Z,100.00
2022-10-06T18:22:01.633Z,100.00
2022-10-06T18:24:31.240Z,100.00
2022-10-06T18:27:00.350Z,100.00
2022-10-06T18:29:33.624Z,100.00
2022-10-06T18:37:35.148Z,100.00
2022-10-06T18:40:05.812Z,100.00
2022-10-06T18:42:33.107Z,100.00
2022-10-06T18:45:18.331Z,100.00
2022-10-06T18:48:03.975Z,100.00
2022-10-06T18:50:31.243Z,100.00
2022-10-06T18:52:58.036Z,100.00
2022-10-06T18:55:26.362Z,100.00
2022-10-06T18:57:53.384Z,100.00
2022-10-06T19:00:20.175Z,100.00
2022-10-06T19:02:51.726Z,100.00
2022-10-06T19:05:18.682Z,100.00
2022-10-06T19:07:45.638Z,100.00
2022-10-06T19:10:12.736Z,100.00
2022-10-06T19:12:39.553Z,100.00
2022-10-06T19:15:08.309Z,100.00
2022-10-06T19:17:35.200Z,100.00
2022-10-06T19:20:02.239Z,100.00
2022-10-06T19:22:29.022Z,100.00
2022-10-06T19:24:55.892Z,100.00
2022-10-06T19:27:24.953Z,100.00
2022-10-06T19:29:56.287Z,100.00
2022-10-06T19:32:32.042Z,100.00
2022-10-06T19:34:59.146Z,100.00
2022-10-06T19:37:29.712Z,100.00
2022-10-06T19:39:56.568Z,100.00
2022-10-06T19:42:42.224Z,100.00
2022-10-06T19:45:11.693Z,100.00
2022-10-06T19:47:38.661Z,100.00
2022-10-06T19:50:11.574Z,100.00
2022-10-06T19:52:40.346Z,100.00
2022-10-06T19:55:07.222Z,100.00
2022-10-06T19:57:34.122Z,100.00
2022-10-06T20:00:01.026Z,100.00
2022-10-06T20:02:28.830Z,100.00
2022-10-06T20:04:56.532Z,100.00
2022-10-06T20:07:27.293Z,100.00
2022-10-06T20:09:54.283Z,100.00
2022-10-06T20:12:24.868Z,100.00
2022-10-06T20:14:53.375Z,100.00
2022-10-06T20:17:21.235Z,100.00
2022-10-06T20:19:48.253Z,100.00
2022-10-06T20:22:15.190Z,100.00
2022-10-06T20:24:42.114Z,100.00
2022-10-06T20:27:09.067Z,100.00
2022-10-06T20:29:35.928Z,100.00
2022-10-06T20:32:05.019Z,100.00
2022-10-06T20:34:32.401Z,100.00
2022-10-06T20:37:02.509Z,100.00
2022-10-06T20:39:50.591Z,100.00
2022-10-06T20:42:19.756Z,100.00
2022-10-06T20:44:46.703Z,100.00
2022-10-06T20:47:16.352Z,100.00
2022-10-06T20:49:45.637Z,100.00
2022-10-06T20:52:15.619Z,100.00
2022-10-06T20:54:42.540Z,100.00
2022-10-06T20:57:09.823Z,100.00
2022-10-06T20:59:37.399Z,100.00
2022-10-06T21:02:06.455Z,100.00
2022-10-06T21:04:34.893Z,100.00
2022-10-06T21:07:05.784Z,100.00
2022-10-06T21:09:32.834Z,100.00
2022-10-06T21:12:00.221Z,100.00
2022-10-06T21:14:27.231Z,100.00
2022-10-06T21:16:54.713Z,100.00
2022-10-06T21:19:21.722Z,100.00
2022-10-06T21:21:53.518Z,100.00
2022-10-06T21:24:21.047Z,100.00
2022-10-06T21:26:48.833Z,100.00
2022-10-06T21:29:16.549Z,100.00
2022-10-06T21:31:45.202Z,100.00
2022-10-06T21:34:16.456Z,100.00
2022-10-06T21:36:43.913Z,100.00
2022-10-06T21:39:12.842Z,100.00
2022-10-06T21:41:40.749Z,100.00
2022-10-06T21:44:14.138Z,100.00
2022-10-06T21:46:50.234Z,100.00
2022-10-06T21:49:20.247Z,100.00
2022-10-06T21:51:51.185Z,100.00
2022-10-06T21:54:19.037Z,100.00
2022-10-06T21:56:46.557Z,100.00
2022-10-06T21:59:13.711Z,100.00
2022-10-06T22:01:43.773Z,100.00
2022-10-06T22:04:12.998Z,100.00
2022-10-06T22:06:44.562Z,100.00
2022-10-06T22:09:16.990Z,100.00
2022-10-06T22:11:44.855Z,100.00
2022-10-06T22:14:15.433Z,100.00
2022-10-06T22:16:42.624Z,100.00
2022-10-06T22:19:13.455Z,100.00
2022-10-06T22:21:43.811Z,100.00
2022-10-06T22:24:18.947Z,100.00
2022-10-06T22:26:46.465Z,100.00
2022-10-06T22:29:17.091Z,100.00
2022-10-06T22:31:46.782Z,100.00
2022-10-06T22:34:17.633Z,100.00
2022-10-06T22:36:44.708Z,100.00
2022-10-06T22:39:11.625Z,100.00
2022-10-06T22:41:38.863Z,100.00
2022-10-06T22:44:05.828Z,100.00
2022-10-06T22:46:35.590Z,100.00
2022-10-06T22:49:04.331Z,100.00
2022-10-06T22:51:31.386Z,100.00
2022-10-06T22:53:59.974Z,100.00
2022-10-06T22:56:29.145Z,100.00
2022-10-06T22:58:59.696Z,100.00
2022-10-06T23:01:28.726Z,100.00
2022-10-06T23:03:56.612Z,100.00
2022-10-06T23:06:24.610Z,100.00
2022-10-06T23:08:52.122Z,100.00
2022-10-06T23:11:21.451Z,100.00
2022-10-06T23:13:50.311Z,100.00
2022-10-06T23:16:18.593Z,100.00
2022-10-06T23:18:46.004Z,100.00
2022-10-06T23:21:21.678Z,100.00
2022-10-06T23:23:52.379Z,100.00
2022-10-06T23:26:20.252Z,100.00
2022-10-06T23:28:56.102Z,100.00
2022-10-06T23:31:23.890Z,100.00
2022-10-06T23:33:51.452Z,100.00
2022-10-06T23:36:18.935Z,100.00
2022-10-06T23:38:46.690Z,100.00
2022-10-06T23:41:14.162Z,100.00
2022-10-06T23:43:41.306Z,100.00
2022-10-06T23:46:08.630Z,100.00
2022-10-06T23:48:35.672Z,100.00
2022-10-06T23:51:06.768Z,100.00
2022-10-06T23:53:34.853Z,100.00
2022-10-06T23:56:02.362Z,100.00
2022-10-06T23:58:29.358Z,100.00
